sensor_id;sensor_type;location;lat;lon;timestamp;temperature;humidity
4637;DHT22;2331;48.806;9.140;2023-02-13T00:00:58;5.70;1.00
4637;DHT22;2331;48.806;9.140;2023-02-13T00:03:25;5.70;1.00
4637;DHT22;2331;48.806;9.140;2023-02-13T00:05:52;5.70;1.00
4637;DHT22;2331;48.806;9.140;2023-02-13T00:08:18;5.60;1.00
4637;DHT22;2331;48.806;9.140;2023-02-13T00:10:47;5.60;1.00
4637;DHT22;2331;48.806;9.140;2023-02-13T00:13:14;5.50;1.00
4637;DHT22;2331;48.806;9.140;2023-02-13T00:15:40;5.50;1.00
4637;DHT22;2331;48.806;9.140;2023-02-13T00:18:07;5.50;1.00
4637;DHT22;2331;48.806;9.140;2023-02-13T00:20:34;5.50;1.00
4637;DHT22;2331;48.806;9.140;2023-02-13T00:23:01;5.50;1.00
4637;DHT22;2331;48.806;9.140;2023-02-13T00:25:28;5.40;1.00
4637;DHT22;2331;48.806;9.140;2023-02-13T00:27:56;5.40;1.00
4637;DHT22;2331;48.806;9.140;2023-02-13T00:30:22;5.30;1.00
4637;DHT22;2331;48.806;9.140;2023-02-13T00:32:49;5.30;1.00
4637;DHT22;2331;48.806;9.140;2023-02-13T00:35:16;5.30;1.00
4637;DHT22;2331;48.806;9.140;2023-02-13T00:37:42;5.30;1.00
4637;DHT22;2331;48.806;9.140;2023-02-13T00:40:10;5.20;1.00
4637;DHT22;2331;48.806;9.140;2023-02-13T00:42:37;5.20;1.00
4637;DHT22;2331;48.806;9.140;2023-02-13T00:45:06;5.20;1.00
4637;DHT22;2331;48.806;9.140;2023-02-13T00:47:32;5.10;1.00
4637;DHT22;2331;48.806;9.140;2023-02-13T00:49:59;5.10;1.00
4637;DHT22;2331;48.806;9.140;2023-02-13T00:52:26;5.00;1.00
4637;DHT22;2331;48.806;9.140;2023-02-13T00:54:52;5.00;1.00
4637;DHT22;2331;48.806;9.140;2023-02-13T00:57:19;5.00;1.00
4637;DHT22;2331;48.806;9.140;2023-02-13T00:59:46;5.00;1.00
4637;DHT22;2331;48.806;9.140;2023-02-13T01:02:14;5.00;1.00
4637;DHT22;2331;48.806;9.140;2023-02-13T01:04:40;5.00;1.00
4637;DHT22;2331;48.806;9.140;2023-02-13T01:07:07;5.00;1.00
4637;DHT22;2331;48.806;9.140;2023-02-13T01:09:34;4.90;1.00
4637;DHT22;2331;48.806;9.140;2023-02-13T01:12:00;4.90;1.00
4637;DHT22;2331;48.806;9.140;2023-02-13T01:14:27;4.80;1.00
4637;DHT22;2331;48.806;9.140;2023-02-13T01:16:54;4.80;1.00
4637;DHT22;2331;48.806;9.140;2023-02-13T01:19:22;4.80;1.00
4637;DHT22;2331;48.806;9.140;2023-02-13T01:21:48;4.70;1.00
4637;DHT22;2331;48.806;9.140;2023-02-13T01:24:15;4.70;1.00
4637;DHT22;2331;48.806;9.140;2023-02-13T01:26:42;4.70;1.00
4637;DHT22;2331;48.806;9.140;2023-02-13T01:29:11;4.70;1.00
4637;DHT22;2331;48.806;9.140;2023-02-13T01:31:37;4.70;1.00
4637;DHT22;2331;48.806;9.140;2023-02-13T01:34:05;4.60;1.00
4637;DHT22;2331;48.806;9.140;2023-02-13T01:36:33;4.70;1.00
4637;DHT22;2331;48.806;9.140;2023-02-13T01:39:00;4.60;1.00
4637;DHT22;2331;48.806;9.140;2023-02-13T01:41:27;4.60;1.00
4637;DHT22;2331;48.806;9.140;2023-02-13T01:43:56;4.60;1.00
4637;DHT22;2331;48.806;9.140;2023-02-13T01:46:26;4.70;1.00
4637;DHT22;2331;48.806;9.140;2023-02-13T01:48:58;4.60;1.00
4637;DHT22;2331;48.806;9.140;2023-02-13T01:51:29;4.50;1.00
4637;DHT22;2331;48.806;9.140;2023-02-13T01:54:01;4.50;1.00
4637;DHT22;2331;48.806;9.140;2023-02-13T01:56:31;4.40;1.00
4637;DHT22;2331;48.806;9.140;2023-02-13T01:59:01;4.50;1.00
4637;DHT22;2331;48.806;9.140;2023-02-13T02:01:30;4.40;1.00
4637;DHT22;2331;48.806;9.140;2023-02-13T02:04:00;4.40;1.00
4637;DHT22;2331;48.806;9.140;2023-02-13T02:06:33;4.40;1.00
4637;DHT22;2331;48.806;9.140;2023-02-13T02:09:04;4.40;1.00
4637;DHT22;2331;48.806;9.140;2023-02-13T02:11:38;4.40;1.00
4637;DHT22;2331;48.806;9.140;2023-02-13T02:14:07;4.40;1.00
4637;DHT22;2331;48.806;9.140;2023-02-13T02:16:34;4.40;1.00
4637;DHT22;2331;48.806;9.140;2023-02-13T02:19:03;4.30;1.00
4637;DHT22;2331;48.806;9.140;2023-02-13T02:21:58;4.30;1.00
4637;DHT22;2331;48.806;9.140;2023-02-13T02:27:45;4.20;1.00
4637;DHT22;2331;48.806;9.140;2023-02-13T02:30:42;4.20;1.00
4637;DHT22;2331;48.806;9.140;2023-02-13T02:33:20;4.20;1.00
4637;DHT22;2331;48.806;9.140;2023-02-13T02:35:59;4.20;1.00
4637;DHT22;2331;48.806;9.140;2023-02-13T02:38:41;4.20;1.00
4637;DHT22;2331;48.806;9.140;2023-02-13T02:41:16;4.20;1.00
4637;DHT22;2331;48.806;9.140;2023-02-13T02:44:11;4.10;1.00
4637;DHT22;2331;48.806;9.140;2023-02-13T02:46:54;4.10;1.00
4637;DHT22;2331;48.806;9.140;2023-02-13T02:49:44;4.20;1.00
4637;DHT22;2331;48.806;9.140;2023-02-13T02:52:30;4.20;1.00
4637;DHT22;2331;48.806;9.140;2023-02-13T02:55:07;4.10;1.00
4637;DHT22;2331;48.806;9.140;2023-02-13T02:57:40;4.10;1.00
4637;DHT22;2331;48.806;9.140;2023-02-13T03:00:28;4.10;1.00
4637;DHT22;2331;48.806;9.140;2023-02-13T03:03:16;4.10;1.00
4637;DHT22;2331;48.806;9.140;2023-02-13T03:06:08;4.00;1.00
4637;DHT22;2331;48.806;9.140;2023-02-13T03:08:41;3.90;1.00
4637;DHT22;2331;48.806;9.140;2023-02-13T03:11:26;3.90;1.00
4637;DHT22;2331;48.806;9.140;2023-02-13T03:14:13;3.90;1.00
4637;DHT22;2331;48.806;9.140;2023-02-13T03:16:41;3.90;1.00
4637;DHT22;2331;48.806;9.140;2023-02-13T03:19:35;3.90;1.00
4637;DHT22;2331;48.806;9.140;2023-02-13T03:22:31;3.90;1.00
4637;DHT22;2331;48.806;9.140;2023-02-13T03:25:10;3.90;1.00
4637;DHT22;2331;48.806;9.140;2023-02-13T03:27:43;3.90;1.00
4637;DHT22;2331;48.806;9.140;2023-02-13T03:30:39;3.90;1.00
4637;DHT22;2331;48.806;9.140;2023-02-13T03:33:21;3.90;1.00
4637;DHT22;2331;48.806;9.140;2023-02-13T03:36:02;3.80;1.00
4637;DHT22;2331;48.806;9.140;2023-02-13T03:38:54;3.80;1.00
4637;DHT22;2331;48.806;9.140;2023-02-13T03:41:25;3.80;1.00
4637;DHT22;2331;48.806;9.140;2023-02-13T03:44:02;3.90;1.00
4637;DHT22;2331;48.806;9.140;2023-02-13T03:46:36;3.80;1.00
4637;DHT22;2331;48.806;9.140;2023-02-13T03:49:05;3.80;1.00
4637;DHT22;2331;48.806;9.140;2023-02-13T03:51:54;3.90;1.00
4637;DHT22;2331;48.806;9.140;2023-02-13T03:54:26;3.80;1.00
4637;DHT22;2331;48.806;9.140;2023-02-13T03:57:14;3.70;1.00
4637;DHT22;2331;48.806;9.140;2023-02-13T04:00:02;3.80;1.00
4637;DHT22;2331;48.806;9.140;2023-02-13T04:02:33;3.80;1.00
4637;DHT22;2331;48.806;9.140;2023-02-13T04:05:07;3.70;1.00
4637;DHT22;2331;48.806;9.140;2023-02-13T04:07:34;3.70;1.00
4637;DHT22;2331;48.806;9.140;2023-02-13T04:10:05;3.70;1.00
4637;DHT22;2331;48.806;9.140;2023-02-13T04:12:37;3.70;1.00
4637;DHT22;2331;48.806;9.140;2023-02-13T04:15:09;3.70;1.00
4637;DHT22;2331;48.806;9.140;2023-02-13T04:17:42;3.70;1.00
4637;DHT22;2331;48.806;9.140;2023-02-13T04:20:10;3.60;1.00
4637;DHT22;2331;48.806;9.140;2023-02-13T04:22:41;3.60;1.00
4637;DHT22;2331;48.806;9.140;2023-02-13T04:25:09;3.60;1.00
4637;DHT22;2331;48.806;9.140;2023-02-13T04:27:36;3.60;1.00
4637;DHT22;2331;48.806;9.140;2023-02-13T04:30:04;3.60;1.00
4637;DHT22;2331;48.806;9.140;2023-02-13T04:32:31;3.60;1.00
4637;DHT22;2331;48.806;9.140;2023-02-13T04:34:58;3.50;1.00
4637;DHT22;2331;48.806;9.140;2023-02-13T04:37:24;3.50;1.00
4637;DHT22;2331;48.806;9.140;2023-02-13T04:39:51;3.50;1.00
4637;DHT22;2331;48.806;9.140;2023-02-13T04:42:19;3.50;1.00
4637;DHT22;2331;48.806;9.140;2023-02-13T04:44:46;3.50;1.00
4637;DHT22;2331;48.806;9.140;2023-02-13T04:47:12;3.40;1.00
4637;DHT22;2331;48.806;9.140;2023-02-13T04:49:39;3.40;1.00
4637;DHT22;2331;48.806;9.140;2023-02-13T04:52:05;3.40;1.00
4637;DHT22;2331;48.806;9.140;2023-02-13T04:54:32;3.40;1.00
4637;DHT22;2331;48.806;9.140;2023-02-13T04:56:59;3.40;1.00
4637;DHT22;2331;48.806;9.140;2023-02-13T04:59:27;3.40;1.00
4637;DHT22;2331;48.806;9.140;2023-02-13T05:01:53;3.50;1.00
4637;DHT22;2331;48.806;9.140;2023-02-13T05:04:20;3.50;1.00
4637;DHT22;2331;48.806;9.140;2023-02-13T05:06:47;3.40;1.00
4637;DHT22;2331;48.806;9.140;2023-02-13T05:09:13;3.40;1.00
4637;DHT22;2331;48.806;9.140;2023-02-13T05:11:40;3.40;1.00
4637;DHT22;2331;48.806;9.140;2023-02-13T05:14:08;3.40;1.00
4637;DHT22;2331;48.806;9.140;2023-02-13T05:16:36;3.40;1.00
4637;DHT22;2331;48.806;9.140;2023-02-13T05:19:03;3.40;1.00
4637;DHT22;2331;48.806;9.140;2023-02-13T05:21:29;3.40;1.00
4637;DHT22;2331;48.806;9.140;2023-02-13T05:24:14;3.40;1.00
4637;DHT22;2331;48.806;9.140;2023-02-13T05:26:40;3.30;1.00
4637;DHT22;2331;48.806;9.140;2023-02-13T05:29:08;3.20;1.00
4637;DHT22;2331;48.806;9.140;2023-02-13T05:31:46;3.20;1.00
4637;DHT22;2331;48.806;9.140;2023-02-13T05:34:13;3.20;1.00
4637;DHT22;2331;48.806;9.140;2023-02-13T05:36:40;3.20;1.00
4637;DHT22;2331;48.806;9.140;2023-02-13T05:39:07;3.20;1.00
4637;DHT22;2331;48.806;9.140;2023-02-13T05:41:34;3.20;1.00
4637;DHT22;2331;48.806;9.140;2023-02-13T05:44:00;3.20;1.00
4637;DHT22;2331;48.806;9.140;2023-02-13T05:46:27;3.20;1.00
4637;DHT22;2331;48.806;9.140;2023-02-13T05:48:55;3.20;1.00
4637;DHT22;2331;48.806;9.140;2023-02-13T05:51:22;3.20;1.00
4637;DHT22;2331;48.806;9.140;2023-02-13T05:53:48;3.20;1.00
4637;DHT22;2331;48.806;9.140;2023-02-13T05:56:15;3.20;1.00
4637;DHT22;2331;48.806;9.140;2023-02-13T05:58:42;3.20;1.00
4637;DHT22;2331;48.806;9.140;2023-02-13T06:01:09;3.20;1.00
4637;DHT22;2331;48.806;9.140;2023-02-13T06:03:36;3.20;1.00
4637;DHT22;2331;48.806;9.140;2023-02-13T06:06:06;3.10;1.00
4637;DHT22;2331;48.806;9.140;2023-02-13T06:08:32;3.10;1.00
4637;DHT22;2331;48.806;9.140;2023-02-13T06:10:59;3.10;1.00
4637;DHT22;2331;48.806;9.140;2023-02-13T06:13:26;3.10;1.00
4637;DHT22;2331;48.806;9.140;2023-02-13T06:15:53;3.10;1.00
4637;DHT22;2331;48.806;9.140;2023-02-13T06:18:19;3.10;1.00
4637;DHT22;2331;48.806;9.140;2023-02-13T06:20:46;3.00;1.00
4637;DHT22;2331;48.806;9.140;2023-02-13T06:23:16;3.00;1.00
4637;DHT22;2331;48.806;9.140;2023-02-13T06:25:43;3.00;1.00
4637;DHT22;2331;48.806;9.140;2023-02-13T06:28:10;3.10;1.00
4637;DHT22;2331;48.806;9.140;2023-02-13T06:30:37;3.10;1.00
4637;DHT22;2331;48.806;9.140;2023-02-13T06:33:04;3.20;1.00
4637;DHT22;2331;48.806;9.140;2023-02-13T06:35:31;3.20;1.00
4637;DHT22;2331;48.806;9.140;2023-02-13T06:37:58;3.20;1.00
4637;DHT22;2331;48.806;9.140;2023-02-13T06:40:26;3.10;1.00
4637;DHT22;2331;48.806;9.140;2023-02-13T06:42:52;3.10;1.00
4637;DHT22;2331;48.806;9.140;2023-02-13T06:45:19;3.10;1.00
4637;DHT22;2331;48.806;9.140;2023-02-13T06:47:47;3.10;1.00
4637;DHT22;2331;48.806;9.140;2023-02-13T06:50:16;3.00;1.00
4637;DHT22;2331;48.806;9.140;2023-02-13T06:52:46;3.00;1.00
4637;DHT22;2331;48.806;9.140;2023-02-13T06:55:13;3.00;1.00
4637;DHT22;2331;48.806;9.140;2023-02-13T06:57:42;2.90;1.00
4637;DHT22;2331;48.806;9.140;2023-02-13T07:00:10;3.00;1.00
4637;DHT22;2331;48.806;9.140;2023-02-13T07:02:38;2.90;1.00
4637;DHT22;2331;48.806;9.140;2023-02-13T07:05:05;2.90;1.00
4637;DHT22;2331;48.806;9.140;2023-02-13T07:07:32;2.90;1.00
4637;DHT22;2331;48.806;9.140;2023-02-13T07:09:59;2.90;1.00
4637;DHT22;2331;48.806;9.140;2023-02-13T07:12:25;2.90;1.00
4637;DHT22;2331;48.806;9.140;2023-02-13T07:14:53;2.90;1.00
4637;DHT22;2331;48.806;9.140;2023-02-13T07:17:20;2.90;1.00
4637;DHT22;2331;48.806;9.140;2023-02-13T07:19:47;2.90;1.00
4637;DHT22;2331;48.806;9.140;2023-02-13T07:22:13;2.90;1.00
4637;DHT22;2331;48.806;9.140;2023-02-13T07:24:40;2.90;1.00
4637;DHT22;2331;48.806;9.140;2023-02-13T07:27:07;2.90;1.00
4637;DHT22;2331;48.806;9.140;2023-02-13T07:29:34;3.00;1.00
4637;DHT22;2331;48.806;9.140;2023-02-13T07:32:02;3.00;1.00
4637;DHT22;2331;48.806;9.140;2023-02-13T07:34:29;3.00;1.00
4637;DHT22;2331;48.806;9.140;2023-02-13T07:36:56;3.10;1.00
4637;DHT22;2331;48.806;9.140;2023-02-13T07:39:22;3.10;1.00
4637;DHT22;2331;48.806;9.140;2023-02-13T07:41:49;3.10;1.00
4637;DHT22;2331;48.806;9.140;2023-02-13T07:44:16;3.10;1.00
4637;DHT22;2331;48.806;9.140;2023-02-13T07:46:43;3.10;1.00
4637;DHT22;2331;48.806;9.140;2023-02-13T07:49:11;3.10;1.00
4637;DHT22;2331;48.806;9.140;2023-02-13T07:51:37;3.10;1.00
4637;DHT22;2331;48.806;9.140;2023-02-13T07:54:04;3.10;1.00
4637;DHT22;2331;48.806;9.140;2023-02-13T07:56:31;3.20;1.00
4637;DHT22;2331;48.806;9.140;2023-02-13T07:58:58;3.30;1.00
4637;DHT22;2331;48.806;9.140;2023-02-13T08:01:24;3.20;1.00
4637;DHT22;2331;48.806;9.140;2023-02-13T08:03:51;3.30;1.00
4637;DHT22;2331;48.806;9.140;2023-02-13T08:06:19;3.30;1.00
4637;DHT22;2331;48.806;9.140;2023-02-13T08:08:46;3.40;1.00
4637;DHT22;2331;48.806;9.140;2023-02-13T08:11:22;3.40;1.00
4637;DHT22;2331;48.806;9.140;2023-02-13T08:14:07;3.40;1.00
4637;DHT22;2331;48.806;9.140;2023-02-13T08:16:33;3.50;1.00
4637;DHT22;2331;48.806;9.140;2023-02-13T08:19:00;3.50;1.00
4637;DHT22;2331;48.806;9.140;2023-02-13T08:21:29;3.50;1.00
4637;DHT22;2331;48.806;9.140;2023-02-13T08:23:56;3.50;1.00
4637;DHT22;2331;48.806;9.140;2023-02-13T08:26:23;3.60;1.00
4637;DHT22;2331;48.806;9.140;2023-02-13T08:28:50;3.60;1.00
4637;DHT22;2331;48.806;9.140;2023-02-13T08:31:16;3.60;1.00
4637;DHT22;2331;48.806;9.140;2023-02-13T08:33:43;3.70;1.00
4637;DHT22;2331;48.806;9.140;2023-02-13T08:36:11;3.70;1.00
4637;DHT22;2331;48.806;9.140;2023-02-13T08:38:39;3.80;1.00
4637;DHT22;2331;48.806;9.140;2023-02-13T08:41:05;3.90;1.00
4637;DHT22;2331;48.806;9.140;2023-02-13T08:43:32;3.90;1.00
4637;DHT22;2331;48.806;9.140;2023-02-13T08:45:59;4.00;1.00
4637;DHT22;2331;48.806;9.140;2023-02-13T08:48:26;4.00;1.00
4637;DHT22;2331;48.806;9.140;2023-02-13T08:50:53;4.10;1.00
4637;DHT22;2331;48.806;9.140;2023-02-13T08:53:20;4.20;1.00
4637;DHT22;2331;48.806;9.140;2023-02-13T08:55:52;4.20;1.00
4637;DHT22;2331;48.806;9.140;2023-02-13T08:58:19;4.30;1.00
4637;DHT22;2331;48.806;9.140;2023-02-13T09:00:46;4.40;1.00
4637;DHT22;2331;48.806;9.140;2023-02-13T09:03:13;4.40;1.00
4637;DHT22;2331;48.806;9.140;2023-02-13T09:05:40;4.60;1.00
4637;DHT22;2331;48.806;9.140;2023-02-13T09:08:07;4.60;1.00
4637;DHT22;2331;48.806;9.140;2023-02-13T09:10:36;4.70;1.00
4637;DHT22;2331;48.806;9.140;2023-02-13T09:13:05;4.80;1.00
4637;DHT22;2331;48.806;9.140;2023-02-13T09:15:32;4.90;1.00
4637;DHT22;2331;48.806;9.140;2023-02-13T09:17:59;5.00;1.00
4637;DHT22;2331;48.806;9.140;2023-02-13T09:20:26;5.00;1.00
4637;DHT22;2331;48.806;9.140;2023-02-13T09:22:54;5.20;1.00
4637;DHT22;2331;48.806;9.140;2023-02-13T09:25:21;5.30;1.00
4637;DHT22;2331;48.806;9.140;2023-02-13T09:27:48;5.30;1.00
4637;DHT22;2331;48.806;9.140;2023-02-13T09:30:16;5.40;1.00
4637;DHT22;2331;48.806;9.140;2023-02-13T09:32:48;5.50;1.00
4637;DHT22;2331;48.806;9.140;2023-02-13T09:35:15;5.60;1.00
4637;DHT22;2331;48.806;9.140;2023-02-13T09:37:42;5.70;1.00
4637;DHT22;2331;48.806;9.140;2023-02-13T09:40:16;5.80;1.00
4637;DHT22;2331;48.806;9.140;2023-02-13T09:42:44;5.90;1.00
4637;DHT22;2331;48.806;9.140;2023-02-13T09:45:13;5.90;1.00
4637;DHT22;2331;48.806;9.140;2023-02-13T09:47:42;6.10;1.00
4637;DHT22;2331;48.806;9.140;2023-02-13T09:50:13;6.10;1.00
4637;DHT22;2331;48.806;9.140;2023-02-13T09:52:43;6.30;1.00
4637;DHT22;2331;48.806;9.140;2023-02-13T09:55:14;6.30;1.00
4637;DHT22;2331;48.806;9.140;2023-02-13T09:57:46;6.40;1.00
4637;DHT22;2331;48.806;9.140;2023-02-13T10:00:19;6.50;1.00
4637;DHT22;2331;48.806;9.140;2023-02-13T10:03:06;6.60;1.00
4637;DHT22;2331;48.806;9.140;2023-02-13T10:05:45;6.70;1.00
4637;DHT22;2331;48.806;9.140;2023-02-13T10:08:26;6.80;1.00
4637;DHT22;2331;48.806;9.140;2023-02-13T10:11:06;7.00;1.00
4637;DHT22;2331;48.806;9.140;2023-02-13T10:13:47;7.10;1.00
4637;DHT22;2331;48.806;9.140;2023-02-13T10:16:18;7.20;1.00
4637;DHT22;2331;48.806;9.140;2023-02-13T10:18:50;7.30;1.00
4637;DHT22;2331;48.806;9.140;2023-02-13T10:21:21;7.30;1.00
4637;DHT22;2331;48.806;9.140;2023-02-13T10:23:53;7.40;1.00
4637;DHT22;2331;48.806;9.140;2023-02-13T10:26:24;7.50;1.00
4637;DHT22;2331;48.806;9.140;2023-02-13T10:28:54;7.50;1.00
4637;DHT22;2331;48.806;9.140;2023-02-13T10:31:42;7.60;1.00
4637;DHT22;2331;48.806;9.140;2023-02-13T10:34:15;7.60;1.00
4637;DHT22;2331;48.806;9.140;2023-02-13T10:36:45;7.70;1.00
4637;DHT22;2331;48.806;9.140;2023-02-13T10:39:22;7.80;1.00
4637;DHT22;2331;48.806;9.140;2023-02-13T10:41:51;7.90;1.00
4637;DHT22;2331;48.806;9.140;2023-02-13T10:44:43;8.00;1.00
4637;DHT22;2331;48.806;9.140;2023-02-13T10:47:25;8.00;1.00
4637;DHT22;2331;48.806;9.140;2023-02-13T10:50:08;8.20;1.00
4637;DHT22;2331;48.806;9.140;2023-02-13T10:52:46;8.30;1.00
4637;DHT22;2331;48.806;9.140;2023-02-13T10:55:35;8.30;1.00
4637;DHT22;2331;48.806;9.140;2023-02-13T10:58:08;8.50;1.00
4637;DHT22;2331;48.806;9.140;2023-02-13T11:00:42;8.60;1.00
4637;DHT22;2331;48.806;9.140;2023-02-13T11:03:17;8.70;1.00
4637;DHT22;2331;48.806;9.140;2023-02-13T11:05:46;8.70;1.00
4637;DHT22;2331;48.806;9.140;2023-02-13T11:08:17;8.90;1.00
4637;DHT22;2331;48.806;9.140;2023-02-13T11:10:45;8.90;1.00
4637;DHT22;2331;48.806;9.140;2023-02-13T11:13:17;9.00;1.00
4637;DHT22;2331;48.806;9.140;2023-02-13T11:15:59;9.10;1.00
4637;DHT22;2331;48.806;9.140;2023-02-13T11:18:29;9.20;1.00
4637;DHT22;2331;48.806;9.140;2023-02-13T11:21:05;9.30;1.00
4637;DHT22;2331;48.806;9.140;2023-02-13T11:23:39;9.40;1.00
4637;DHT22;2331;48.806;9.140;2023-02-13T11:26:10;9.50;1.00
4637;DHT22;2331;48.806;9.140;2023-02-13T11:28:43;9.60;1.00
4637;DHT22;2331;48.806;9.140;2023-02-13T11:31:13;9.70;1.00
4637;DHT22;2331;48.806;9.140;2023-02-13T11:33:45;9.70;1.00
4637;DHT22;2331;48.806;9.140;2023-02-13T11:36:15;9.80;1.00
4637;DHT22;2331;48.806;9.140;2023-02-13T11:38:43;9.80;1.00
4637;DHT22;2331;48.806;9.140;2023-02-13T11:41:11;9.90;1.00
4637;DHT22;2331;48.806;9.140;2023-02-13T11:43:45;10.10;1.00
4637;DHT22;2331;48.806;9.140;2023-02-13T11:46:17;10.20;1.00
4637;DHT22;2331;48.806;9.140;2023-02-13T11:48:59;10.10;1.00
4637;DHT22;2331;48.806;9.140;2023-02-13T11:51:40;10.20;1.00
4637;DHT22;2331;48.806;9.140;2023-02-13T11:54:27;10.30;1.00
4637;DHT22;2331;48.806;9.140;2023-02-13T11:56:56;10.30;1.00
4637;DHT22;2331;48.806;9.140;2023-02-13T11:59:23;10.40;1.00
4637;DHT22;2331;48.806;9.140;2023-02-13T12:02:13;10.40;1.00
4637;DHT22;2331;48.806;9.140;2023-02-13T12:04:40;10.50;1.00
4637;DHT22;2331;48.806;9.140;2023-02-13T12:07:15;10.60;1.00
4637;DHT22;2331;48.806;9.140;2023-02-13T12:09:44;10.60;1.00
4637;DHT22;2331;48.806;9.140;2023-02-13T12:12:17;10.70;1.00
4637;DHT22;2331;48.806;9.140;2023-02-13T12:14:45;10.80;1.00
4637;DHT22;2331;48.806;9.140;2023-02-13T12:17:15;10.80;1.00
4637;DHT22;2331;48.806;9.140;2023-02-13T12:19:44;10.90;1.00
4637;DHT22;2331;48.806;9.140;2023-02-13T12:22:31;10.90;1.00
4637;DHT22;2331;48.806;9.140;2023-02-13T12:25:30;11.00;1.00
4637;DHT22;2331;48.806;9.140;2023-02-13T12:28:09;11.10;1.00
4637;DHT22;2331;48.806;9.140;2023-02-13T12:33:45;11.20;1.00
4637;DHT22;2331;48.806;9.140;2023-02-13T12:36:18;11.30;1.00
4637;DHT22;2331;48.806;9.140;2023-02-13T12:38:59;11.40;1.00
4637;DHT22;2331;48.806;9.140;2023-02-13T12:41:37;11.40;1.00
4637;DHT22;2331;48.806;9.140;2023-02-13T12:44:32;11.50;1.00
4637;DHT22;2331;48.806;9.140;2023-02-13T12:47:15;11.60;1.00
4637;DHT22;2331;48.806;9.140;2023-02-13T12:50:08;11.60;1.00
4637;DHT22;2331;48.806;9.140;2023-02-13T12:52:53;11.60;1.00
4637;DHT22;2331;48.806;9.140;2023-02-13T12:55:41;11.70;1.00
4637;DHT22;2331;48.806;9.140;2023-02-13T12:58:37;11.70;1.00
4637;DHT22;2331;48.806;9.140;2023-02-13T13:01:16;11.80;1.00
4637;DHT22;2331;48.806;9.140;2023-02-13T13:03:53;11.80;1.00
4637;DHT22;2331;48.806;9.140;2023-02-13T13:06:45;11.80;1.00
4637;DHT22;2331;48.806;9.140;2023-02-13T13:09:35;11.90;1.00
4637;DHT22;2331;48.806;9.140;2023-02-13T13:12:15;12.00;1.00
4637;DHT22;2331;48.806;9.140;2023-02-13T13:14:51;12.00;1.00
4637;DHT22;2331;48.806;9.140;2023-02-13T13:17:30;12.10;1.00
4637;DHT22;2331;48.806;9.140;2023-02-13T13:20:11;12.10;1.00
4637;DHT22;2331;48.806;9.140;2023-02-13T13:22:48;12.20;1.00
4637;DHT22;2331;48.806;9.140;2023-02-13T13:25:22;12.20;1.00
4637;DHT22;2331;48.806;9.140;2023-02-13T13:27:55;12.10;1.00
4637;DHT22;2331;48.806;9.140;2023-02-13T13:30:26;12.20;1.00
4637;DHT22;2331;48.806;9.140;2023-02-13T13:32:57;12.30;1.00
4637;DHT22;2331;48.806;9.140;2023-02-13T13:35:26;12.40;1.00
4637;DHT22;2331;48.806;9.140;2023-02-13T13:37:59;12.40;1.00
4637;DHT22;2331;48.806;9.140;2023-02-13T13:40:36;12.40;1.00
4637;DHT22;2331;48.806;9.140;2023-02-13T13:43:15;12.40;1.00
4637;DHT22;2331;48.806;9.140;2023-02-13T13:45:47;12.50;1.00
4637;DHT22;2331;48.806;9.140;2023-02-13T13:48:34;12.60;1.00
4637;DHT22;2331;48.806;9.140;2023-02-13T13:51:06;12.60;1.00
4637;DHT22;2331;48.806;9.140;2023-02-13T13:53:35;12.60;1.00
4637;DHT22;2331;48.806;9.140;2023-02-13T13:56:05;12.70;1.00
4637;DHT22;2331;48.806;9.140;2023-02-13T13:58:40;12.60;1.00
4637;DHT22;2331;48.806;9.140;2023-02-13T14:01:22;12.60;1.00
4637;DHT22;2331;48.806;9.140;2023-02-13T14:03:51;12.70;1.00
4637;DHT22;2331;48.806;9.140;2023-02-13T14:06:20;12.80;1.00
4637;DHT22;2331;48.806;9.140;2023-02-13T14:09:05;12.90;1.00
4637;DHT22;2331;48.806;9.140;2023-02-13T14:11:35;12.90;1.00
4637;DHT22;2331;48.806;9.140;2023-02-13T14:17:50;12.90;1.00
4637;DHT22;2331;48.806;9.140;2023-02-13T14:23:27;13.00;1.00
4637;DHT22;2331;48.806;9.140;2023-02-13T14:29:33;13.00;1.00
4637;DHT22;2331;48.806;9.140;2023-02-13T14:32:06;13.00;1.00
4637;DHT22;2331;48.806;9.140;2023-02-13T14:34:36;13.00;1.00
4637;DHT22;2331;48.806;9.140;2023-02-13T14:37:16;12.90;1.00
4637;DHT22;2331;48.806;9.140;2023-02-13T14:43:04;12.90;1.00
4637;DHT22;2331;48.806;9.140;2023-02-13T14:45:43;12.90;1.00
4637;DHT22;2331;48.806;9.140;2023-02-13T14:48:13;12.80;1.00
4637;DHT22;2331;48.806;9.140;2023-02-13T14:50:44;12.80;1.00
4637;DHT22;2331;48.806;9.140;2023-02-13T14:53:18;12.70;1.00
4637;DHT22;2331;48.806;9.140;2023-02-13T14:55:48;12.50;1.00
4637;DHT22;2331;48.806;9.140;2023-02-13T14:58:23;12.50;1.00
4637;DHT22;2331;48.806;9.140;2023-02-13T15:00:55;12.50;1.00
4637;DHT22;2331;48.806;9.140;2023-02-13T15:03:28;12.40;1.00
4637;DHT22;2331;48.806;9.140;2023-02-13T15:05:58;12.40;1.00
4637;DHT22;2331;48.806;9.140;2023-02-13T15:08:29;12.40;1.00
4637;DHT22;2331;48.806;9.140;2023-02-13T15:10:57;12.40;1.00
4637;DHT22;2331;48.806;9.140;2023-02-13T15:13:30;12.30;1.00
4637;DHT22;2331;48.806;9.140;2023-02-13T15:16:01;12.30;1.00
4637;DHT22;2331;48.806;9.140;2023-02-13T15:18:30;12.20;1.00
4637;DHT22;2331;48.806;9.140;2023-02-13T15:20:59;12.10;1.00
4637;DHT22;2331;48.806;9.140;2023-02-13T15:23:28;12.10;1.00
4637;DHT22;2331;48.806;9.140;2023-02-13T15:25:57;12.10;1.00
4637;DHT22;2331;48.806;9.140;2023-02-13T15:28:25;12.00;1.00
4637;DHT22;2331;48.806;9.140;2023-02-13T15:30:53;12.00;1.00
4637;DHT22;2331;48.806;9.140;2023-02-13T15:33:24;11.90;1.00
4637;DHT22;2331;48.806;9.140;2023-02-13T15:35:56;11.80;1.00
4637;DHT22;2331;48.806;9.140;2023-02-13T15:38:25;11.90;1.00
4637;DHT22;2331;48.806;9.140;2023-02-13T15:40:55;11.80;1.00
4637;DHT22;2331;48.806;9.140;2023-02-13T15:43:27;11.70;1.00
4637;DHT22;2331;48.806;9.140;2023-02-13T15:45:59;11.80;1.00
4637;DHT22;2331;48.806;9.140;2023-02-13T15:48:29;11.80;1.00
4637;DHT22;2331;48.806;9.140;2023-02-13T15:50:57;11.80;1.00
4637;DHT22;2331;48.806;9.140;2023-02-13T15:53:23;11.70;1.00
4637;DHT22;2331;48.806;9.140;2023-02-13T15:55:59;11.70;1.00
4637;DHT22;2331;48.806;9.140;2023-02-13T15:58:29;11.60;1.00
4637;DHT22;2331;48.806;9.140;2023-02-13T16:01:02;11.60;1.00
4637;DHT22;2331;48.806;9.140;2023-02-13T16:03:31;11.50;1.00
4637;DHT22;2331;48.806;9.140;2023-02-13T16:05:58;11.50;1.00
4637;DHT22;2331;48.806;9.140;2023-02-13T16:08:29;11.60;1.00
4637;DHT22;2331;48.806;9.140;2023-02-13T16:11:18;11.60;1.00
4637;DHT22;2331;48.806;9.140;2023-02-13T16:14:03;11.40;1.00
4637;DHT22;2331;48.806;9.140;2023-02-13T16:16:34;11.30;1.00
4637;DHT22;2331;48.806;9.140;2023-02-13T16:19:03;11.30;1.00
4637;DHT22;2331;48.806;9.140;2023-02-13T16:21:30;11.30;1.00
4637;DHT22;2331;48.806;9.140;2023-02-13T16:24:01;11.20;1.00
4637;DHT22;2331;48.806;9.140;2023-02-13T16:26:28;11.10;1.00
4637;DHT22;2331;48.806;9.140;2023-02-13T16:28:56;11.00;1.00
4637;DHT22;2331;48.806;9.140;2023-02-13T16:31:23;10.90;1.00
4637;DHT22;2331;48.806;9.140;2023-02-13T16:33:49;11.00;1.00
4637;DHT22;2331;48.806;9.140;2023-02-13T16:36:27;10.90;1.00
4637;DHT22;2331;48.806;9.140;2023-02-13T16:38:54;11.00;1.00
4637;DHT22;2331;48.806;9.140;2023-02-13T16:41:32;10.90;1.00
4637;DHT22;2331;48.806;9.140;2023-02-13T16:43:59;10.90;1.00
4637;DHT22;2331;48.806;9.140;2023-02-13T16:46:29;10.90;1.00
4637;DHT22;2331;48.806;9.140;2023-02-13T16:51:47;10.80;1.00
4637;DHT22;2331;48.806;9.140;2023-02-13T16:54:21;10.80;1.00
4637;DHT22;2331;48.806;9.140;2023-02-13T16:56:50;10.70;1.00
4637;DHT22;2331;48.806;9.140;2023-02-13T16:59:28;10.70;1.00
4637;DHT22;2331;48.806;9.140;2023-02-13T17:02:14;10.60;1.00
4637;DHT22;2331;48.806;9.140;2023-02-13T17:04:46;10.60;1.00
4637;DHT22;2331;48.806;9.140;2023-02-13T17:07:20;10.60;1.00
4637;DHT22;2331;48.806;9.140;2023-02-13T17:09:58;10.50;1.00
4637;DHT22;2331;48.806;9.140;2023-02-13T17:12:26;10.50;1.00
4637;DHT22;2331;48.806;9.140;2023-02-13T17:14:55;10.40;1.00
4637;DHT22;2331;48.806;9.140;2023-02-13T17:17:22;10.40;1.00
4637;DHT22;2331;48.806;9.140;2023-02-13T17:19:50;10.30;1.00
4637;DHT22;2331;48.806;9.140;2023-02-13T17:22:24;10.30;1.00